PWSweather.com
Personal Weather Stations
Station Observations
SHAHALMS1
Eftra, Falkenberg, HA

EftraFalkenberg, HA

Lat: 56.85, Lon: 12.65

Elevation: 140

Station Type:

http://hem.passagen.se/risarp101

High Low Average
Temperature 71.2°F21.8°C 53.8°F12.1°C 61.7°F16.5°C
Dew Point 58.6°F14.8°C 50.6°F10.3°C 54.2°F12.3°C
Winds 7.5 mph 12.1 kmh Calm Calm 3.0 mph ESE4.8 kmh ESE
Wind Gusts 16.8 mph27.0 kmh -- 6.0 mph9.7 kmh
Humidity 92% 54% 78%
Pressure 30.27 in1025.1 mb 30.09 in1019.0 mb -
Precipitation 0.00 in0.0 mm - -
Hour Temp Dew Point Humidity Winds Wind Gusts Pressure Precip Precip Rate Daily Precip Total
12:00 AM 57.2°F14.0°C 53.7°F12.1°C 88% 5.0 mph SE8.0 kmh SE 7.2 mph11.6 kmh 30.27 in1025.1 mb 0.00 in0.0 mm 0.00 in0.0 mm 0.00 in0.0 mm
12:15 AM 56.8°F13.8°C 53.3°F11.8°C 88% 3.8 mph SE6.1 kmh SE 7.5 mph12.1 kmh 30.27 in1025.1 mb 0.00 in0.0 mm 0.00 in0.0 mm 0.00 in0.0 mm
12:30 AM 56.5°F13.6°C 53.0°F11.7°C 88% 3.2 mph SE5.1 kmh SE 7.5 mph12.1 kmh 30.27 in1025.1 mb 0.00 in0.0 mm 0.00 in0.0 mm 0.00 in0.0 mm
12:45 AM 56.1°F13.4°C 52.6°F11.4°C 88% Calm Calm -- 30.27 in1025.1 mb 0.00 in0.0 mm 0.00 in0.0 mm 0.00 in0.0 mm
01:00 AM 56.3°F13.5°C 52.8°F11.6°C 88% Calm Calm -- 30.24 in1024.0 mb 0.00 in0.0 mm 0.00 in0.0 mm 0.00 in0.0 mm
01:15 AM 56.1°F13.4°C 52.9°F11.6°C 89% Calm Calm -- 30.27 in1025.1 mb 0.00 in0.0 mm 0.00 in0.0 mm 0.00 in0.0 mm
01:30 AM 56.3°F13.5°C 53.1°F11.7°C 89% 4.2 mph SE6.8 kmh SE 8.6 mph13.8 kmh 30.27 in1025.1 mb 0.00 in0.0 mm 0.00 in0.0 mm 0.00 in0.0 mm
01:45 AM 56.7°F13.7°C 53.5°F11.9°C 89% 2.9 mph ESE4.7 kmh ESE 9.3 mph15.0 kmh 30.27 in1025.1 mb 0.00 in0.0 mm 0.00 in0.0 mm 0.00 in0.0 mm
02:00 AM 56.5°F13.6°C 53.3°F11.8°C 89% 1.3 mph ESE2.1 kmh ESE 7.9 mph12.7 kmh 30.24 in1024.0 mb 0.00 in0.0 mm 0.00 in0.0 mm 0.00 in0.0 mm
02:15 AM 56.3°F13.5°C 53.1°F11.7°C 89% 3.3 mph ESE5.3 kmh ESE 7.5 mph12.1 kmh 30.27 in1025.1 mb 0.00 in0.0 mm 0.00 in0.0 mm 0.00 in0.0 mm
02:30 AM 56.1°F13.4°C 52.9°F11.6°C 89% 2.1 mph ESE3.4 kmh ESE 8.9 mph14.3 kmh 30.27 in1025.1 mb 0.00 in0.0 mm 0.00 in0.0 mm 0.00 in0.0 mm
02:45 AM 55.8°F13.2°C 52.6°F11.4°C 89% Calm Calm -- 30.27 in1025.1 mb 0.00 in0.0 mm 0.00 in0.0 mm 0.00 in0.0 mm
03:00 AM 55.4°F13.0°C 52.2°F11.2°C 89% Calm Calm -- 30.27 in1025.1 mb 0.00 in0.0 mm 0.00 in0.0 mm 0.00 in0.0 mm
03:15 AM 55.0°F12.8°C 51.9°F11.1°C 89% Calm Calm -- 30.27 in1025.1 mb 0.00 in0.0 mm 0.00 in0.0 mm 0.00 in0.0 mm
03:30 AM 54.7°F12.6°C 51.2°F10.7°C 88% Calm Calm -- 30.27 in1025.1 mb 0.00 in0.0 mm 0.00 in0.0 mm 0.00 in0.0 mm
03:45 AM 54.3°F12.4°C 50.8°F10.4°C 88% Calm Calm -- 30.27 in1025.1 mb 0.00 in0.0 mm 0.00 in0.0 mm 0.00 in0.0 mm
04:01 AM 54.1°F12.3°C 51.0°F10.6°C 89% Calm Calm -- 30.27 in1025.1 mb 0.00 in0.0 mm 0.00 in0.0 mm 0.00 in0.0 mm
04:15 AM 53.8°F12.1°C 50.6°F10.3°C 89% 0.1 mph E0.2 kmh E 4.3 mph6.9 kmh 30.24 in1024.0 mb 0.00 in0.0 mm 0.00 in0.0 mm 0.00 in0.0 mm
04:30 AM 53.8°F12.1°C 50.6°F10.3°C 89% 1.0 mph ESE1.6 kmh ESE 5.4 mph8.7 kmh 30.24 in1024.0 mb 0.00 in0.0 mm 0.00 in0.0 mm 0.00 in0.0 mm
04:45 AM 53.8°F12.1°C 50.6°F10.3°C 89% 3.6 mph ESE5.8 kmh ESE 6.8 mph10.9 kmh 30.24 in1024.0 mb 0.00 in0.0 mm 0.00 in0.0 mm 0.00 in0.0 mm
05:00 AM 53.8°F12.1°C 50.9°F10.5°C 90% 3.8 mph ESE6.1 kmh ESE 7.5 mph12.1 kmh 30.24 in1024.0 mb 0.00 in0.0 mm 0.00 in0.0 mm 0.00 in0.0 mm
05:15 AM 53.8°F12.1°C 50.9°F10.5°C 90% 4.7 mph ESE7.6 kmh ESE 6.8 mph10.9 kmh 30.24 in1024.0 mb 0.00 in0.0 mm 0.00 in0.0 mm 0.00 in0.0 mm
05:30 AM 54.0°F12.2°C 51.1°F10.6°C 90% 3.7 mph SE6.0 kmh SE 7.5 mph12.1 kmh 30.21 in1023.0 mb 0.00 in0.0 mm 0.00 in0.0 mm 0.00 in0.0 mm
05:45 AM 54.1°F12.3°C 51.3°F10.7°C 90% 1.1 mph E1.8 kmh E 5.7 mph9.2 kmh 30.24 in1024.0 mb 0.00 in0.0 mm 0.00 in0.0 mm 0.00 in0.0 mm
06:00 AM 54.5°F12.5°C 51.6°F10.9°C 90% 0.5 mph E0.8 kmh E 5.7 mph9.2 kmh 30.27 in1025.1 mb 0.00 in0.0 mm 0.00 in0.0 mm 0.00 in0.0 mm
06:15 AM 55.0°F12.8°C 52.5°F11.4°C 91% 0.6 mph E1.0 kmh E 3.9 mph6.3 kmh 30.24 in1024.0 mb 0.00 in0.0 mm 0.00 in0.0 mm 0.00 in0.0 mm
06:30 AM 55.6°F13.1°C 53.0°F11.7°C 91% 0.1 mph E0.2 kmh E 3.6 mph5.8 kmh 30.24 in1024.0 mb 0.00 in0.0 mm 0.00 in0.0 mm 0.00 in0.0 mm
06:45 AM 56.3°F13.5°C 53.7°F12.1°C 91% 0.3 mph E0.5 kmh E 4.7 mph7.6 kmh 30.24 in1024.0 mb 0.00 in0.0 mm 0.00 in0.0 mm 0.00 in0.0 mm
07:00 AM 57.2°F14.0°C 54.9°F12.7°C 92% 2.0 mph E3.2 kmh E 6.8 mph10.9 kmh 30.24 in1024.0 mb 0.00 in0.0 mm 0.00 in0.0 mm 0.00 in0.0 mm
07:15 AM 58.3°F14.6°C 56.0°F13.3°C 92% 3.9 mph E6.3 kmh E 7.9 mph12.7 kmh 30.24 in1024.0 mb 0.00 in0.0 mm 0.00 in0.0 mm 0.00 in0.0 mm
07:30 AM 59.2°F15.1°C 56.6°F13.7°C 91% 3.0 mph E4.8 kmh E 9.3 mph15.0 kmh 30.24 in1024.0 mb 0.00 in0.0 mm 0.00 in0.0 mm 0.00 in0.0 mm
07:45 AM 59.9°F15.5°C 57.3°F14.1°C 91% 2.1 mph E3.4 kmh E 6.4 mph10.3 kmh 30.24 in1024.0 mb 0.00 in0.0 mm 0.00 in0.0 mm 0.00 in0.0 mm
08:00 AM 60.4°F15.8°C 57.5°F14.2°C 90% 0.4 mph ESE0.6 kmh ESE 5.7 mph9.2 kmh 30.24 in1024.0 mb 0.00 in0.0 mm 0.00 in0.0 mm 0.00 in0.0 mm
08:15 AM 61.3°F16.3°C 58.4°F14.7°C 90% 3.7 mph ESE6.0 kmh ESE 9.7 mph15.6 kmh 30.24 in1024.0 mb 0.00 in0.0 mm 0.00 in0.0 mm 0.00 in0.0 mm
08:30 AM 61.9°F16.6°C 58.6°F14.8°C 89% 4.6 mph ESE7.4 kmh ESE 9.7 mph15.6 kmh 30.24 in1024.0 mb 0.00 in0.0 mm 0.00 in0.0 mm 0.00 in0.0 mm
08:45 AM 62.4°F16.9°C 58.5°F14.7°C 87% 7.5 mph SE12.1 kmh SE 16.5 mph26.6 kmh 30.21 in1023.0 mb 0.00 in0.0 mm 0.00 in0.0 mm 0.00 in0.0 mm
09:00 AM 62.8°F17.1°C 58.2°F14.6°C 85% 5.7 mph SE9.2 kmh SE 13.6 mph21.9 kmh 30.24 in1024.0 mb 0.00 in0.0 mm 0.00 in0.0 mm 0.00 in0.0 mm
09:15 AM 63.1°F17.3°C 57.6°F14.2°C 82% 6.0 mph SE9.7 kmh SE 12.9 mph20.8 kmh 30.24 in1024.0 mb 0.00 in0.0 mm 0.00 in0.0 mm 0.00 in0.0 mm
09:30 AM 63.7°F17.6°C 57.7°F14.3°C 81% 6.1 mph ESE9.8 kmh ESE 14.3 mph23.0 kmh 30.21 in1023.0 mb 0.00 in0.0 mm 0.00 in0.0 mm 0.00 in0.0 mm
09:45 AM 64.4°F18.0°C 57.7°F14.3°C 79% 6.9 mph ESE11.1 kmh ESE 13.6 mph21.9 kmh 30.21 in1023.0 mb 0.00 in0.0 mm 0.00 in0.0 mm 0.00 in0.0 mm
10:00 AM 64.8°F18.2°C 57.7°F14.3°C 78% 5.1 mph E8.2 kmh E 10.0 mph16.1 kmh 30.18 in1022.0 mb 0.00 in0.0 mm 0.00 in0.0 mm 0.00 in0.0 mm
10:15 AM 65.3°F18.5°C 57.9°F14.4°C 77% 5.2 mph ENE8.4 kmh ENE 12.5 mph20.1 kmh 30.18 in1022.0 mb 0.00 in0.0 mm 0.00 in0.0 mm 0.00 in0.0 mm
10:30 AM 66.4°F19.1°C 58.6°F14.8°C 76% 6.3 mph E10.1 kmh E 16.8 mph27.0 kmh 30.18 in1022.0 mb 0.00 in0.0 mm 0.00 in0.0 mm 0.00 in0.0 mm
10:45 AM 66.9°F19.4°C 58.0°F14.4°C 73% 6.5 mph E10.5 kmh E 15.0 mph24.1 kmh 30.21 in1023.0 mb 0.00 in0.0 mm 0.00 in0.0 mm 0.00 in0.0 mm
11:00 AM 67.6°F19.8°C 57.9°F14.4°C 71% 6.5 mph E10.5 kmh E 12.5 mph20.1 kmh 30.21 in1023.0 mb 0.00 in0.0 mm 0.00 in0.0 mm 0.00 in0.0 mm
11:15 AM 68.2°F20.1°C 56.8°F13.8°C 67% 7.0 mph E11.3 kmh E 14.0 mph22.5 kmh 30.21 in1023.0 mb 0.00 in0.0 mm 0.00 in0.0 mm 0.00 in0.0 mm
11:30 AM 68.7°F20.4°C 56.5°F13.6°C 65% 4.9 mph E7.9 kmh E 9.7 mph15.6 kmh 30.21 in1023.0 mb 0.00 in0.0 mm 0.00 in0.0 mm 0.00 in0.0 mm
11:45 AM 69.1°F20.6°C 56.4°F13.6°C 64% 6.5 mph E10.5 kmh E 13.6 mph21.9 kmh 30.21 in1023.0 mb 0.00 in0.0 mm 0.00 in0.0 mm 0.00 in0.0 mm
12:15 PM 70.0°F21.1°C 55.9°F13.3°C 61% 5.4 mph ESE8.7 kmh ESE 11.8 mph19.0 kmh 30.21 in1023.0 mb 0.00 in0.0 mm 0.00 in0.0 mm 0.00 in0.0 mm
12:30 PM 70.3°F21.3°C 55.8°F13.2°C 60% 4.9 mph SE7.9 kmh SE 14.0 mph22.5 kmh 30.21 in1023.0 mb 0.00 in0.0 mm 0.00 in0.0 mm 0.00 in0.0 mm
12:45 PM 70.5°F21.4°C 55.5°F13.1°C 59% 6.0 mph E9.7 kmh E 11.8 mph19.0 kmh 30.18 in1022.0 mb 0.00 in0.0 mm 0.00 in0.0 mm 0.00 in0.0 mm
01:00 PM 70.9°F21.6°C 55.8°F13.2°C 59% 5.6 mph E9.0 kmh E 12.5 mph20.1 kmh 30.18 in1022.0 mb 0.00 in0.0 mm 0.00 in0.0 mm 0.00 in0.0 mm
01:15 PM 71.1°F21.7°C 55.5°F13.1°C 58% 5.8 mph E9.3 kmh E 16.5 mph26.6 kmh 30.18 in1022.0 mb 0.00 in0.0 mm 0.00 in0.0 mm 0.00 in0.0 mm
01:30 PM 71.1°F21.7°C 54.6°F12.6°C 56% 3.4 mph E5.5 kmh E 8.6 mph13.8 kmh 30.18 in1022.0 mb 0.00 in0.0 mm 0.00 in0.0 mm 0.00 in0.0 mm
01:45 PM 71.2°F21.8°C 54.2°F12.3°C 55% 6.2 mph E10.0 kmh E 12.9 mph20.8 kmh 30.18 in1022.0 mb 0.00 in0.0 mm 0.00 in0.0 mm 0.00 in0.0 mm
02:00 PM 71.1°F21.7°C 53.6°F12.0°C 54% 2.1 mph NE3.4 kmh NE 5.7 mph9.2 kmh 30.18 in1022.0 mb 0.00 in0.0 mm 0.00 in0.0 mm 0.00 in0.0 mm
02:15 PM 71.1°F21.7°C 55.1°F12.8°C 57% 3.4 mph WSW5.5 kmh WSW 7.5 mph12.1 kmh 30.18 in1022.0 mb 0.00 in0.0 mm 0.00 in0.0 mm 0.00 in0.0 mm
02:30 PM 70.5°F21.4°C 55.5°F13.1°C 59% 3.3 mph WSW5.3 kmh WSW 8.9 mph14.3 kmh 30.15 in1021.0 mb 0.00 in0.0 mm 0.00 in0.0 mm 0.00 in0.0 mm
02:45 PM 70.2°F21.2°C 55.6°F13.1°C 60% 2.3 mph WNW3.7 kmh WNW 6.4 mph10.3 kmh 30.18 in1022.0 mb 0.00 in0.0 mm 0.00 in0.0 mm 0.00 in0.0 mm
03:00 PM 70.0°F21.1°C 55.5°F13.1°C 60% 2.3 mph WSW3.7 kmh WSW 7.5 mph12.1 kmh 30.15 in1021.0 mb 0.00 in0.0 mm 0.00 in0.0 mm 0.00 in0.0 mm
03:15 PM 69.8°F21.0°C 55.3°F12.9°C 60% 2.2 mph W3.5 kmh W 5.7 mph9.2 kmh 30.15 in1021.0 mb 0.00 in0.0 mm 0.00 in0.0 mm 0.00 in0.0 mm
03:30 PM 69.6°F20.9°C 55.1°F12.8°C 60% 2.5 mph W4.0 kmh W 7.5 mph12.1 kmh 30.15 in1021.0 mb 0.00 in0.0 mm 0.00 in0.0 mm 0.00 in0.0 mm
03:45 PM 69.4°F20.8°C 55.4°F13.0°C 61% 2.2 mph W3.5 kmh W 5.7 mph9.2 kmh 30.15 in1021.0 mb 0.00 in0.0 mm 0.00 in0.0 mm 0.00 in0.0 mm
04:00 PM 69.4°F20.8°C 55.4°F13.0°C 61% 2.5 mph W4.0 kmh W 6.8 mph10.9 kmh 30.12 in1020.0 mb 0.00 in0.0 mm 0.00 in0.0 mm 0.00 in0.0 mm
04:15 PM 69.3°F20.7°C 55.2°F12.9°C 61% 1.5 mph W2.4 kmh W 5.7 mph9.2 kmh 30.15 in1021.0 mb 0.00 in0.0 mm 0.00 in0.0 mm 0.00 in0.0 mm
04:30 PM 68.9°F20.5°C 55.3°F12.9°C 62% 1.3 mph WNW2.1 kmh WNW 7.9 mph12.7 kmh 30.12 in1020.0 mb 0.00 in0.0 mm 0.00 in0.0 mm 0.00 in0.0 mm
04:45 PM 68.7°F20.4°C 54.7°F12.6°C 61% 0.9 mph WNW1.4 kmh WNW 4.7 mph7.6 kmh 30.15 in1021.0 mb 0.00 in0.0 mm 0.00 in0.0 mm 0.00 in0.0 mm
05:00 PM 68.4°F20.2°C 54.8°F12.7°C 62% 0.2 mph W0.3 kmh W 3.6 mph5.8 kmh 30.12 in1020.0 mb 0.00 in0.0 mm 0.00 in0.0 mm 0.00 in0.0 mm
05:15 PM 68.0°F20.0°C 54.0°F12.2°C 61% 0.7 mph WNW1.1 kmh WNW 5.4 mph8.7 kmh 30.15 in1021.0 mb 0.00 in0.0 mm 0.00 in0.0 mm 0.00 in0.0 mm
05:30 PM 67.3°F19.6°C 53.8°F12.1°C 62% 0.2 mph WNW0.3 kmh WNW 3.2 mph5.1 kmh 30.15 in1021.0 mb 0.00 in0.0 mm 0.00 in0.0 mm 0.00 in0.0 mm
05:45 PM 66.7°F19.3°C 53.7°F12.1°C 63% Calm Calm -- 30.15 in1021.0 mb 0.00 in0.0 mm 0.00 in0.0 mm 0.00 in0.0 mm
06:00 PM 66.0°F18.9°C 53.9°F12.2°C 65% 0.1 mph W0.2 kmh W 1.4 mph2.3 kmh 30.15 in1021.0 mb 0.00 in0.0 mm 0.00 in0.0 mm 0.00 in0.0 mm
06:15 PM 65.1°F18.4°C 53.5°F11.9°C 66% 0.1 mph W0.2 kmh W 1.4 mph2.3 kmh 30.15 in1021.0 mb 0.00 in0.0 mm 0.00 in0.0 mm 0.00 in0.0 mm
06:30 PM 64.6°F18.1°C 53.4°F11.9°C 67% Calm Calm -- 30.15 in1021.0 mb 0.00 in0.0 mm 0.00 in0.0 mm 0.00 in0.0 mm
06:45 PM 63.7°F17.6°C 53.3°F11.8°C 69% Calm Calm -- 30.15 in1021.0 mb 0.00 in0.0 mm 0.00 in0.0 mm 0.00 in0.0 mm
07:00 PM 62.8°F17.1°C 53.6°F12.0°C 72% Calm Calm -- 30.15 in1021.0 mb 0.00 in0.0 mm 0.00 in0.0 mm 0.00 in0.0 mm
07:15 PM 62.2°F16.8°C 54.2°F12.3°C 75% 0.1 mph W0.2 kmh W 1.4 mph2.3 kmh 30.15 in1021.0 mb 0.00 in0.0 mm 0.00 in0.0 mm 0.00 in0.0 mm
07:30 PM 61.7°F16.5°C 54.4°F12.4°C 77% Calm Calm -- 30.15 in1021.0 mb 0.00 in0.0 mm 0.00 in0.0 mm 0.00 in0.0 mm
07:45 PM 61.2°F16.2°C 53.9°F12.2°C 77% Calm Calm -- 30.15 in1021.0 mb 0.00 in0.0 mm 0.00 in0.0 mm 0.00 in0.0 mm
08:01 PM 60.8°F16.0°C 53.9°F12.2°C 78% Calm Calm -- 30.15 in1021.0 mb 0.00 in0.0 mm 0.00 in0.0 mm 0.00 in0.0 mm
08:15 PM 60.3°F15.7°C 53.4°F11.9°C 78% Calm Calm -- 30.15 in1021.0 mb 0.00 in0.0 mm 0.00 in0.0 mm 0.00 in0.0 mm
08:30 PM 59.7°F15.4°C 52.8°F11.6°C 78% Calm Calm -- 30.12 in1020.0 mb 0.00 in0.0 mm 0.00 in0.0 mm 0.00 in0.0 mm
08:45 PM 59.4°F15.2°C 52.8°F11.6°C 79% 0.1 mph E0.2 kmh E 2.1 mph3.4 kmh 30.12 in1020.0 mb 0.00 in0.0 mm 0.00 in0.0 mm 0.00 in0.0 mm
09:00 PM 59.2°F15.1°C 52.7°F11.5°C 79% Calm Calm -- 30.12 in1020.0 mb 0.00 in0.0 mm 0.00 in0.0 mm 0.00 in0.0 mm
09:15 PM 58.8°F14.9°C 52.7°F11.5°C 80% Calm Calm 1.8 mph2.9 kmh 30.09 in1019.0 mb 0.00 in0.0 mm 0.00 in0.0 mm 0.00 in0.0 mm
09:30 PM 58.6°F14.8°C 52.5°F11.4°C 80% 0.1 mph ESE0.2 kmh ESE 2.1 mph3.4 kmh 30.09 in1019.0 mb 0.00 in0.0 mm 0.00 in0.0 mm 0.00 in0.0 mm
09:45 PM 58.3°F14.6°C 52.5°F11.4°C 81% 0.1 mph E0.2 kmh E 1.8 mph2.9 kmh 30.09 in1019.0 mb 0.00 in0.0 mm 0.00 in0.0 mm 0.00 in0.0 mm
10:00 PM 58.1°F14.5°C 52.6°F11.4°C 82% Calm Calm -- 30.09 in1019.0 mb 0.00 in0.0 mm 0.00 in0.0 mm 0.00 in0.0 mm
10:15 PM 57.9°F14.4°C 52.8°F11.6°C 83% Calm Calm -- 30.09 in1019.0 mb 0.00 in0.0 mm 0.00 in0.0 mm 0.00 in0.0 mm
10:30 PM 57.7°F14.3°C 52.9°F11.6°C 84% 4.7 mph E7.6 kmh E 8.9 mph14.3 kmh 30.09 in1019.0 mb 0.00 in0.0 mm 0.00 in0.0 mm 0.00 in0.0 mm
10:45 PM 57.4°F14.1°C 52.6°F11.4°C 84% 2.8 mph E4.5 kmh E 6.4 mph10.3 kmh 30.09 in1019.0 mb 0.00 in0.0 mm 0.00 in0.0 mm 0.00 in0.0 mm
11:00 PM 57.2°F14.0°C 52.7°F11.5°C 85% 4.3 mph E6.9 kmh E 6.8 mph10.9 kmh 30.09 in1019.0 mb 0.00 in0.0 mm 0.00 in0.0 mm 0.00 in0.0 mm
11:15 PM 57.0°F13.9°C 52.6°F11.4°C 85% 3.3 mph E5.3 kmh E 6.8 mph10.9 kmh 30.09 in1019.0 mb 0.00 in0.0 mm 0.00 in0.0 mm 0.00 in0.0 mm
11:30 PM 56.8°F13.8°C 52.7°F11.5°C 86% 4.9 mph ESE7.9 kmh ESE 9.7 mph15.6 kmh 30.09 in1019.0 mb 0.00 in0.0 mm 0.00 in0.0 mm 0.00 in0.0 mm
11:45 PM 56.8°F13.8°C 52.7°F11.5°C 86% 6.8 mph ESE10.9 kmh ESE 11.8 mph19.0 kmh 30.09 in1019.0 mb 0.00 in0.0 mm 0.00 in0.0 mm 0.00 in0.0 mm